Time;durP1;ratioP1;P1;durP2;ratioP2;P2;SDS_P1;SDS_P2;PMS_P1;PMS_P2;Temp;Humidity;BMP_temperature;BMP_pressure;BME280_temperature;BME280_humidity;BME280_pressure;Samples;Min_cycle;Max_cycle;Signal;HPM_P1;HPM_P2
2023/10/23 00:00:51;;;;;;;2.78;1.02;;;;;;;10.96;67.26;96470.28;4848977;29;20140;-85
2023/10/23 00:03:18;;;;;;;1.30;1.00;;;;;;;10.93;67.08;96474.09;4850677;29;20413;-85
2023/10/23 00:05:46;;;;;;;2.65;0.90;;;;;;;10.90;67.02;96469.22;4851075;29;20511;-85
2023/10/23 00:08:14;;;;;;;3.90;1.35;;;;;;;10.87;66.97;96474.03;4850929;29;20069;-86
2023/10/23 00:10:44;;;;;;;5.15;1.33;;;;;;;10.83;67.10;96475.38;4850335;29;20513;-85
2023/10/23 00:13:12;;;;;;;4.22;1.40;;;;;;;10.79;67.09;96476.75;4851290;29;20054;-85
2023/10/23 00:15:40;;;;;;;3.25;0.80;;;;;;;10.78;67.34;96469.91;4850638;29;20561;-83
2023/10/23 00:18:08;;;;;;;3.00;1.33;;;;;;;10.76;66.94;96470.09;4849672;29;20545;-88
2023/10/23 00:20:35;;;;;;;2.88;1.20;;;;;;;10.71;66.81;96470.66;4850408;29;20321;-87
2023/10/23 00:23:03;;;;;;;3.05;1.33;;;;;;;10.66;66.86;96482.63;4857603;24;20141;-79
2023/10/23 00:25:30;;;;;;;4.18;1.88;;;;;;;10.58;66.93;96480.94;4823561;29;20089;-79
2023/10/23 00:28:00;;;;;;;3.50;1.45;;;;;;;10.51;67.06;96480.84;4824196;29;20428;-79
2023/10/23 00:30:32;;;;;;;2.15;1.15;;;;;;;10.43;67.13;96470.56;4823983;29;20426;-78
2023/10/23 00:32:59;;;;;;;4.10;1.33;;;;;;;10.39;67.42;96482.34;4823939;29;20058;-79
2023/10/23 00:35:27;;;;;;;3.67;1.00;;;;;;;10.34;67.30;96473.44;4824163;29;20579;-78
2023/10/23 00:37:54;;;;;;;2.50;0.88;;;;;;;10.29;67.54;96480.00;4823997;29;20103;-79
2023/10/23 00:40:22;;;;;;;5.05;1.23;;;;;;;10.27;67.74;96489.78;4823938;29;20054;-79
2023/10/23 00:42:50;;;;;;;4.60;1.30;;;;;;;10.25;67.54;96485.75;4823590;29;20066;-79
2023/10/23 00:45:19;;;;;;;3.50;1.15;;;;;;;10.23;67.70;96492.94;4823586;29;20145;-79
2023/10/23 00:47:47;;;;;;;6.65;1.58;;;;;;;10.21;67.70;96487.94;4824417;29;20090;-78
2023/10/23 00:50:15;;;;;;;3.40;1.13;;;;;;;10.19;67.78;96489.91;4823662;29;20046;-79
2023/10/23 00:52:43;;;;;;;3.55;1.40;;;;;;;10.18;67.64;96493.50;4823706;29;20089;-79
2023/10/23 00:55:12;;;;;;;3.20;1.35;;;;;;;10.14;67.61;96488.81;4823338;29;20046;-79
2023/10/23 00:57:40;;;;;;;1.42;0.80;;;;;;;10.10;67.72;96493.56;4823524;29;20085;-78
2023/10/23 01:00:09;;;;;;;3.20;1.05;;;;;;;10.05;67.89;96486.31;4823692;29;20480;-78
2023/10/23 01:02:38;;;;;;;2.20;1.17;;;;;;;10.05;67.91;96482.91;4826224;29;20582;-79
2023/10/23 01:05:06;;;;;;;3.47;1.70;;;;;;;10.03;67.85;96490.09;4823498;29;20050;-78
2023/10/23 01:07:34;;;;;;;10.48;0.98;;;;;;;10.02;67.98;96481.47;4823447;29;20149;-79
2023/10/23 01:10:02;;;;;;;2.40;0.98;;;;;;;10.01;67.86;96481.63;4821324;29;20149;-79
2023/10/23 01:12:30;;;;;;;5.05;1.10;;;;;;;10.00;68.04;96482.63;4821394;29;20492;-79
2023/10/23 01:14:57;;;;;;;2.15;0.73;;;;;;;9.98;67.90;96477.59;4821629;29;20400;-79
2023/10/23 01:17:25;;;;;;;3.97;1.08;;;;;;;9.96;68.24;96476.97;4821628;29;20523;-78
2023/10/23 01:19:54;;;;;;;3.05;0.93;;;;;;;9.97;68.43;96477.78;4821832;29;20523;-78
2023/10/23 01:22:21;;;;;;;2.10;0.82;;;;;;;9.99;69.26;96475.78;4821461;29;20097;-79
2023/10/23 01:24:50;;;;;;;4.93;1.15;;;;;;;10.04;69.36;96483.91;4822104;29;20599;-78
2023/10/23 01:27:19;;;;;;;5.53;1.85;;;;;;;10.04;68.43;96473.47;4823530;29;20058;-79
2023/10/23 01:29:47;;;;;;;6.97;3.13;;;;;;;10.00;68.11;96478.22;4823604;29;20484;-78
2023/10/23 01:32:15;;;;;;;3.58;1.60;;;;;;;9.97;67.94;96476.00;4822967;29;20058;-78
2023/10/23 01:34:42;;;;;;;4.05;1.40;;;;;;;9.91;67.96;96468.91;4823119;29;20050;-78
2023/10/23 01:37:10;;;;;;;2.05;0.90;;;;;;;9.88;68.08;96470.06;4823543;29;20137;-78
2023/10/23 01:39:37;;;;;;;1.55;0.90;;;;;;;9.84;68.03;96468.81;4823413;29;20137;-79
2023/10/23 01:42:06;;;;;;;2.30;1.15;;;;;;;9.82;68.59;96462.97;4823236;29;20046;-78
2023/10/23 01:44:35;;;;;;;2.53;1.00;;;;;;;9.82;69.45;96465.56;4823154;29;20082;-78
2023/10/23 01:47:02;;;;;;;2.47;1.05;;;;;;;9.81;69.03;96469.16;4823626;29;20089;-79
2023/10/23 01:49:30;;;;;;;4.47;1.30;;;;;;;9.80;68.70;96471.97;4823274;29;20149;-79
2023/10/23 01:51:58;;;;;;;3.28;0.80;;;;;;;9.81;69.32;96466.53;4823108;29;20140;-79
2023/10/23 01:54:25;;;;;;;4.15;1.20;;;;;;;9.82;68.57;96476.00;4823079;29;20054;-79
2023/10/23 01:56:53;;;;;;;2.55;1.10;;;;;;;9.80;68.50;96469.34;4822962;29;20059;-78
2023/10/23 01:59:21;;;;;;;2.65;1.17;;;;;;;9.79;68.95;96475.53;4823048;29;20145;-78
2023/10/23 02:01:49;;;;;;;0.80;0.80;;;;;;;9.79;68.68;96475.53;4822932;29;20141;-79
2023/10/23 02:04:17;;;;;;;1.88;0.73;;;;;;;9.80;68.62;96471.97;4835189;29;20123;-78
2023/10/23 02:06:45;;;;;;;2.22;0.82;;;;;;;9.77;68.24;96475.72;4823943;29;20126;-79
2023/10/23 02:09:13;;;;;;;1.67;0.80;;;;;;;9.76;69.19;96476.72;4822979;29;20070;-79
2023/10/23 02:11:40;;;;;;;2.33;0.80;;;;;;;9.74;68.32;96489.09;4822917;29;20145;-79
2023/10/23 02:14:08;;;;;;;1.77;0.90;;;;;;;9.71;68.52;96484.25;4822730;29;20054;-79
2023/10/23 02:16:35;;;;;;;3.33;0.70;;;;;;;9.67;68.23;96483.00;4822962;29;20479;-79
2023/10/23 02:19:05;;;;;;;1.15;0.90;;;;;;;9.64;68.32;96483.34;4823058;29;20050;-79
2023/10/23 02:21:32;;;;;;;1.98;0.90;;;;;;;9.62;68.26;96480.94;4823389;29;20058;-79
2023/10/23 02:24:00;;;;;;;1.52;0.52;;;;;;;9.58;68.21;96476.25;4825901;29;20093;-78
2023/10/23 02:26:29;;;;;;;1.88;0.88;;;;;;;9.54;68.38;96472.41;4825953;29;20591;-78
2023/10/23 02:28:57;;;;;;;4.10;0.80;;;;;;;9.48;68.23;96474.69;4825840;29;20149;-79
2023/10/23 02:31:25;;;;;;;1.95;0.60;;;;;;;9.44;68.45;96473.44;4825622;29;20058;-79
2023/10/23 02:33:53;;;;;;;3.80;0.73;;;;;;;9.44;69.05;96470.03;4825870;29;20499;-79
2023/10/23 02:36:22;;;;;;;1.92;0.77;;;;;;;9.45;68.75;96475.06;4825810;29;20062;-78
2023/10/23 02:38:49;;;;;;;4.15;0.90;;;;;;;9.44;68.54;96472.63;4825612;29;20149;-79
2023/10/23 02:41:17;;;;;;;1.63;0.70;;;;;;;9.40;68.61;96477.41;4825609;29;20142;-79
2023/10/23 02:43:45;;;;;;;3.55;0.77;;;;;;;9.38;68.55;96473.34;4825413;29;20116;-79
2023/10/23 02:46:13;;;;;;;0.80;0.50;;;;;;;9.35;68.31;96473.69;4825814;29;20065;-79
2023/10/23 02:48:41;;;;;;;5.00;1.17;;;;;;;9.32;68.64;96477.47;4826195;29;20054;-79
2023/10/23 02:51:09;;;;;;;2.72;1.15;;;;;;;9.30;68.66;96483.84;4825895;29;20111;-78
2023/10/23 02:53:38;;;;;;;0.75;0.63;;;;;;;9.27;68.67;96479.78;4825415;29;20103;-79
2023/10/23 02:56:10;;;;;;;2.75;0.70;;;;;;;9.27;69.37;96477.16;4825150;29;20050;-79
2023/10/23 02:58:38;;;;;;;2.92;0.93;;;;;;;9.30;69.14;96479.44;4825647;29;20100;-79
2023/10/23 03:01:14;;;;;;;2.53;1.20;;;;;;;9.31;70.31;96486.25;4825485;29;20092;-78
2023/10/23 03:03:43;;;;;;;2.20;0.80;;;;;;;9.34;69.78;96485.91;4825298;29;20061;-78
2023/10/23 03:06:11;;;;;;;1.77;0.73;;;;;;;9.34;69.19;96483.31;4825065;29;20058;-79
2023/10/23 03:08:40;;;;;;;3.40;0.80;;;;;;;9.32;69.05;96489.69;4826123;29;20142;-79
2023/10/23 03:11:08;;;;;;;2.47;0.77;;;;;;;9.27;68.86;96485.81;4825310;29;20090;-78
2023/10/23 03:13:36;;;;;;;2.00;0.77;;;;;;;9.26;68.93;96485.97;4825142;29;20089;-78
2023/10/23 03:16:04;;;;;;;4.13;0.60;;;;;;;9.22;68.57;96485.50;4825370;29;20058;-79
2023/10/23 03:18:32;;;;;;;1.02;0.68;;;;;;;9.20;69.11;96491.88;4826080;29;20510;-79
2023/10/23 03:21:00;;;;;;;1.08;0.73;;;;;;;9.21;70.16;96490.91;4825832;29;20054;-78
2023/10/23 03:23:28;;;;;;;1.98;0.65;;;;;;;9.20;69.07;96492.69;4839486;29;20080;-78
2023/10/23 03:25:57;;;;;;;2.35;0.85;;;;;;;9.16;69.01;96486.25;4845355;29;20327;-78
2023/10/23 03:28:25;;;;;;;2.72;0.95;;;;;;;9.12;69.04;96484.13;4834014;29;20058;-79
2023/10/23 03:30:52;;;;;;;3.70;0.98;;;;;;;9.06;68.91;96481.25;4827139;29;20054;-79
2023/10/23 03:33:21;;;;;;;2.15;0.80;;;;;;;9.07;69.20;96485.50;4825758;29;20061;-79
2023/10/23 03:35:49;;;;;;;4.10;0.95;;;;;;;9.08;69.28;96481.91;4825589;29;20495;-78
2023/10/23 03:38:16;;;;;;;3.72;1.35;;;;;;;9.11;69.36;96490.34;4825770;29;20057;-79
2023/10/23 03:40:55;;;;;;;2.60;0.77;;;;;;;9.12;71.95;96490.16;4825523;29;20145;-79
2023/10/23 03:43:24;;;;;;;2.95;0.95;;;;;;;9.11;69.39;96488.53;4824930;29;20507;-79
2023/10/23 03:45:51;;;;;;;2.15;0.70;;;;;;;9.06;69.01;96486.47;4824962;29;20058;-79
2023/10/23 03:48:19;;;;;;;2.90;0.80;;;;;;;9.04;69.13;96482.41;4825986;29;20091;-79
2023/10/23 03:50:47;;;;;;;2.28;0.75;;;;;;;8.97;69.26;96492.72;4825209;29;20114;-79
2023/10/23 03:53:15;;;;;;;3.13;0.68;;;;;;;8.95;69.43;96484.28;4825274;29;20389;-79
2023/10/23 03:55:42;;;;;;;2.40;0.88;;;;;;;8.94;69.30;96487.03;4824743;29;20476;-79
2023/10/23 03:58:10;;;;;;;1.65;0.38;;;;;;;8.92;69.41;96487.25;4825134;29;20054;-79
2023/10/23 04:00:39;;;;;;;2.28;0.80;;;;;;;8.93;69.40;96483.63;4825149;29;20133;-78
2023/10/23 04:03:06;;;;;;;3.55;1.00;;;;;;;8.94;69.15;96477.44;4824958;29;20465;-79
2023/10/23 04:05:40;;;;;;;3.78;0.88;;;;;;;8.96;71.21;96472.88;4824803;29;20054;-79
2023/10/23 04:08:07;;;;;;;4.25;1.50;;;;;;;9.00;70.36;96476.75;4824718;29;20064;-79
2023/10/23 04:10:35;;;;;;;6.13;1.10;;;;;;;9.05;71.27;96477.06;4824429;29;20137;-79
2023/10/23 04:13:02;;;;;;;2.58;1.00;;;;;;;9.05;70.02;96474.44;4839550;29;20081;-79
2023/10/23 04:15:30;;;;;;;1.98;1.08;;;;;;;9.00;69.45;96465.53;4829797;29;20538;-79
2023/10/23 04:17:59;;;;;;;2.60;1.00;;;;;;;8.98;70.21;96473.50;4825214;29;20128;-79
2023/10/23 04:20:27;;;;;;;2.88;1.25;;;;;;;9.05;70.27;96471.00;4825000;29;20057;-79
2023/10/23 04:22:54;;;;;;;2.28;0.90;;;;;;;9.08;70.82;96468.88;4824564;29;20046;-79
2023/10/23 04:25:22;;;;;;;5.65;1.10;;;;;;;9.12;70.69;96465.91;4824469;29;20140;-79
2023/10/23 04:27:49;;;;;;;5.10;1.50;;;;;;;9.07;69.13;96461.25;4824522;29;20057;-78
2023/10/23 04:30:17;;;;;;;5.70;1.40;;;;;;;9.01;69.21;96457.56;4824730;29;20050;-78
2023/10/23 04:32:45;;;;;;;4.15;1.40;;;;;;;8.97;68.80;96456.28;4824622;29;20078;-79
2023/10/23 04:35:14;;;;;;;8.75;1.58;;;;;;;8.91;69.00;96464.00;4824214;29;20058;-78
2023/10/23 04:37:41;;;;;;;5.10;1.58;;;;;;;8.91;69.07;96458.78;4824609;29;20061;-79
2023/10/23 04:40:09;;;;;;;6.07;1.95;;;;;;;8.89;68.71;96456.34;4824527;29;20064;-78
2023/10/23 04:42:37;;;;;;;5.53;1.50;;;;;;;8.88;68.68;96459.94;4824280;29;20592;-78
2023/10/23 04:45:06;;;;;;;4.25;2.10;;;;;;;8.88;68.78;96462.56;4823732;29;20061;-79
2023/10/23 04:47:33;;;;;;;5.03;2.17;;;;;;;8.87;68.75;96460.91;4824509;29;20054;-78
2023/10/23 04:50:01;;;;;;;3.75;1.90;;;;;;;8.84;68.69;96453.47;4824512;29;20058;-78
2023/10/23 04:52:30;;;;;;;4.13;1.60;;;;;;;8.81;68.78;96451.19;4824381;29;20050;-79
2023/10/23 04:54:58;;;;;;;3.20;1.63;;;;;;;8.77;68.81;96447.34;4823774;29;20566;-79
2023/10/23 04:57:26;;;;;;;4.75;1.65;;;;;;;8.75;69.08;96455.31;4823958;29;20058;-78
2023/10/23 04:59:54;;;;;;;4.53;1.77;;;;;;;8.74;68.80;96445.09;4824159;29;20480;-78
2023/10/23 05:02:22;;;;;;;5.78;1.83;;;;;;;8.75;69.05;96447.53;4824282;29;20105;-78
2023/10/23 05:04:49;;;;;;;4.07;1.60;;;;;;;8.75;68.93;96452.72;4823964;29;20056;-78
2023/10/23 05:07:17;;;;;;;4.95;2.15;;;;;;;8.76;69.67;96448.31;4823889;29;20334;-79
2023/10/23 05:09:46;;;;;;;6.57;2.53;;;;;;;8.79;70.02;96458.38;4824109;29;20492;-79
2023/10/23 05:12:14;;;;;;;4.25;2.42;;;;;;;8.87;72.21;96446.13;4824307;29;20064;-78
2023/10/23 05:14:41;;;;;;;6.10;3.33;;;;;;;8.86;70.38;96452.31;4823979;29;20060;-79
2023/10/23 05:17:09;;;;;;;6.78;3.50;;;;;;;8.83;69.30;96451.84;4824223;29;20149;-79
2023/10/23 05:19:36;;;;;;;8.25;2.30;;;;;;;8.76;69.02;96445.72;4824046;29;20515;-78
2023/10/23 05:22:04;;;;;;;4.45;2.63;;;;;;;8.70;69.31;96449.00;4823749;29;20057;-79
2023/10/23 05:24:32;;;;;;;6.35;3.17;;;;;;;8.67;69.34;96450.19;4824147;29;20141;-79
2023/10/23 05:27:01;;;;;;;6.95;2.75;;;;;;;8.65;69.44;96444.34;4823793;29;20068;-78
2023/10/23 05:29:29;;;;;;;6.50;2.30;;;;;;;8.63;69.25;96444.50;4824220;29;20053;-78
2023/10/23 05:31:57;;;;;;;6.55;2.78;;;;;;;8.62;69.12;96439.50;4823893;29;20059;-79
2023/10/23 05:34:24;;;;;;;4.72;2.00;;;;;;;8.62;68.83;96445.50;4823474;29;20050;-78
2023/10/23 05:36:52;;;;;;;12.60;3.33;;;;;;;8.61;70.65;96440.47;4817787;29;20062;-79
2023/10/23 05:39:19;;;;;;;4.72;2.70;;;;;;;8.72;74.79;96439.25;4806591;29;20055;-80
2023/10/23 05:41:47;;;;;;;5.38;3.13;;;;;;;8.86;76.59;96444.50;4811150;29;20059;-78
2023/10/23 05:44:16;;;;;;;3.88;2.42;;;;;;;8.92;75.41;96443.00;4809561;29;20533;-78
2023/10/23 05:46:43;;;;;;;6.68;2.80;;;;;;;8.97;75.62;96445.09;4817216;29;20529;-78
2023/10/23 05:49:11;;;;;;;3.78;2.75;;;;;;;8.85;71.38;96447.28;4823025;29;20051;-80
2023/10/23 05:51:39;;;;;;;5.53;2.92;;;;;;;8.80;74.42;96440.00;4805420;29;20142;-78
2023/10/23 05:54:08;;;;;;;7.22;3.65;;;;;;;8.79;72.56;96447.97;4821799;29;20400;-78
2023/10/23 05:56:35;;;;;;;5.75;3.78;;;;;;;8.79;72.88;96453.16;4823501;29;20515;-78
2023/10/23 05:59:03;;;;;;;4.07;2.88;;;;;;;8.89;76.72;96464.16;4826540;29;20119;-78
2023/10/23 06:01:33;;;;;;;8.82;4.32;;;;;;;8.93;74.59;96460.22;4812856;29;20490;-78
2023/10/23 06:04:01;;;;;;;7.57;4.35;;;;;;;8.84;71.79;96462.09;4808096;29;20062;-78
2023/10/23 06:06:29;;;;;;;8.48;4.43;;;;;;;8.70;71.32;96464.63;4812646;29;20071;-80
2023/10/23 06:08:59;;;;;;;5.60;3.60;;;;;;;8.73;75.75;96470.28;4826111;29;20122;-80
2023/10/23 06:11:27;;;;;;;5.15;3.70;;;;;;;8.80;77.37;96471.22;4845784;29;20099;-80
2023/10/23 06:13:55;;;;;;;4.68;3.58;;;;;;;8.87;79.16;96472.13;4857141;29;20038;-80
2023/10/23 06:16:24;;;;;;;5.72;3.75;;;;;;;8.92;79.87;96476.84;4838393;29;20034;-80
2023/10/23 06:18:53;;;;;;;10.05;4.63;;;;;;;8.94;79.50;96481.84;5008409;24;20058;-80
2023/10/23 06:21:21;;;;;;;12.60;5.05;;;;;;;8.82;74.21;96478.84;4849399;29;20045;-80
2023/10/23 06:27:23;;;;;;;7.18;4.80;;;;;;;8.77;76.57;96486.38;4860198;29;20091;-81
2023/10/23 07:04:07;;;;;;;4.67;3.57;;;;;;;9.26;72.88;96467.75;5009187;24;20050;-82
2023/10/23 07:06:35;;;;;;;7.05;3.90;;;;;;;9.35;72.92;96469.28;4846304;29;20326;-82
2023/10/23 07:09:04;;;;;;;12.82;6.35;;;;;;;9.44;70.55;96470.81;4839514;29;20095;-82
2023/10/23 07:11:32;;;;;;;11.45;5.50;;;;;;;9.54;75.29;96472.41;4839460;29;20523;-81
2023/10/23 07:14:00;;;;;;;11.07;5.50;;;;;;;9.69;75.44;96478.41;4838777;29;20047;-79
2023/10/23 07:16:28;;;;;;;10.23;5.47;;;;;;;9.81;75.21;96473.56;4839143;29;20050;-80
2023/10/23 07:18:56;;;;;;;9.77;5.47;;;;;;;9.92;72.32;96469.69;4846363;29;20073;-79
2023/10/23 07:21:27;;;;;;;11.25;5.25;;;;;;;10.02;71.01;96475.44;4848059;29;20038;-82
2023/10/23 07:23:54;;;;;;;11.15;5.30;;;;;;;10.13;70.08;96475.00;4846650;29;20054;-82
2023/10/23 07:26:22;;;;;;;9.70;5.32;;;;;;;10.24;69.90;96465.91;4842258;29;20083;-82
2023/10/23 07:28:50;;;;;;;9.85;5.22;;;;;;;10.39;73.52;96471.13;4820842;29;20055;-82
2023/10/23 07:31:18;;;;;;;8.60;5.45;;;;;;;10.52;71.07;96476.47;4818325;29;20050;-82
2023/10/23 07:33:45;;;;;;;10.52;5.97;;;;;;;10.55;68.64;96483.13;4828452;29;20054;-82
2023/10/23 07:36:14;;;;;;;11.52;5.60;;;;;;;10.58;67.92;96475.72;4827633;29;20105;-82
2023/10/23 07:38:45;;;;;;;10.63;5.07;;;;;;;10.63;69.15;96465.56;4812458;29;20084;-82
2023/10/23 07:41:13;;;;;;;11.65;6.22;;;;;;;10.61;68.15;96451.88;4818432;29;20094;-79
2023/10/23 07:43:42;;;;;;;13.68;6.43;;;;;;;10.62;69.73;96445.66;4819147;29;20145;-79
2023/10/23 07:46:11;;;;;;;12.85;6.07;;;;;;;10.63;69.01;96436.88;4815223;29;20072;-79
2023/10/23 07:48:45;;;;;;;10.75;6.00;;;;;;;10.69;69.92;96436.13;4832491;29;20122;-79
2023/10/23 07:51:14;;;;;;;10.88;5.80;;;;;;;10.74;70.54;96426.94;4838967;29;20050;-79
2023/10/23 07:53:42;;;;;;;10.52;5.75;;;;;;;10.82;70.87;96426.78;4833046;29;20065;-79
2023/10/23 07:56:12;;;;;;;8.45;5.50;;;;;;;10.93;76.06;96423.66;4820608;29;20496;-79
2023/10/23 07:58:40;;;;;;;8.07;6.07;;;;;;;11.01;77.39;96420.94;4816603;29;20051;-79
2023/10/23 08:01:10;;;;;;;11.35;6.45;;;;;;;11.06;78.71;96421.19;4831362;29;20038;-79
2023/10/23 08:03:38;;;;;;;11.98;6.45;;;;;;;11.11;79.16;96424.03;4847668;29;20052;-79
2023/10/23 08:06:09;;;;;;;7.35;5.30;;;;;;;11.14;78.21;96428.88;4832998;29;20078;-80
2023/10/23 08:08:38;;;;;;;8.07;4.93;;;;;;;11.12;78.52;96420.41;4840703;29;20058;-79
2023/10/23 08:11:07;;;;;;;9.43;4.88;;;;;;;11.12;75.83;96417.81;4830799;29;20057;-79
2023/10/23 08:13:38;;;;;;;11.60;5.60;;;;;;;11.11;76.51;96426.63;4826369;29;20054;-79
2023/10/23 08:16:06;;;;;;;10.27;4.57;;;;;;;11.23;76.02;96420.91;4827979;29;20030;-82
2023/10/23 08:18:35;;;;;;;8.30;4.68;;;;;;;11.36;76.22;96414.97;4838933;29;20053;-82
2023/10/23 08:21:10;;;;;;;7.30;3.60;;;;;;;11.47;73.42;96417.84;4831441;29;20137;-80
2023/10/23 08:23:37;;;;;;;9.63;3.88;;;;;;;11.57;70.89;96401.84;4834537;29;20428;-82
2023/10/23 10:19:45;;;;;;;4.45;2.40;;;;;;;13.68;63.47;96366.72;5487411;24;20069;-80
2023/10/23 10:22:20;;;;;;;3.63;2.60;;;;;;;13.68;62.93;96366.72;4916671;24;20115;-80
2023/10/23 10:27:23;;;;;;;4.05;2.28;;;;;;;13.69;63.33;96363.09;5535337;24;20044;-82
2023/10/23 10:29:52;;;;;;;3.67;2.67;;;;;;;13.71;63.43;96359.25;4854173;29;20491;-77
2023/10/23 10:32:24;;;;;;;4.22;2.70;;;;;;;13.73;63.54;96364.25;4826818;29;20058;-78
2023/10/23 10:34:55;;;;;;;3.72;2.17;;;;;;;13.73;63.57;96359.00;4861933;24;20701;-83
2023/10/23 10:37:27;;;;;;;3.03;2.33;;;;;;;13.75;64.03;96357.00;4849590;29;20049;-87
2023/10/23 10:40:06;;;;;;;4.25;2.80;;;;;;;13.80;63.55;96346.72;4845876;29;20050;-89
2023/10/23 10:42:39;;;;;;;6.68;3.00;;;;;;;13.81;63.46;96345.69;4850073;29;20463;-91
2023/10/23 10:45:14;;;;;;;2.75;2.40;;;;;;;13.82;63.37;96349.94;4849460;29;20053;-87
2023/10/23 10:47:45;;;;;;;6.50;3.83;;;;;;;13.86;63.24;96340.59;4847926;29;20088;-81
2023/10/23 10:50:31;;;;;;;5.15;2.60;;;;;;;13.88;63.12;96341.22;4848860;29;20487;-84
2023/10/23 10:53:03;;;;;;;8.48;3.60;;;;;;;13.91;63.50;96335.56;4852948;29;20149;-83
2023/10/23 10:55:32;;;;;;;4.35;2.85;;;;;;;13.91;63.04;96325.06;4839587;29;20107;-81
2023/10/23 10:58:00;;;;;;;2.97;2.58;;;;;;;13.94;63.31;96323.84;4836374;29;20054;-84
2023/10/23 11:00:32;;;;;;;5.32;3.28;;;;;;;13.97;63.23;96311.13;4839958;29;20047;-85
2023/10/23 11:03:00;;;;;;;6.22;3.47;;;;;;;14.00;63.10;96307.28;4847700;29;20058;-84
2023/10/23 11:05:29;;;;;;;4.20;3.00;;;;;;;14.02;63.08;96300.00;4842216;29;20062;-89
2023/10/23 11:07:57;;;;;;;3.97;2.92;;;;;;;14.05;62.92;96306.66;4838035;29;20050;-85
2023/10/23 11:10:25;;;;;;;3.08;2.28;;;;;;;14.07;62.58;96296.75;4843537;29;20050;-88
2023/10/23 11:12:52;;;;;;;3.25;2.10;;;;;;;14.09;62.48;96294.72;4846343;29;20064;-84
2023/10/23 11:15:20;;;;;;;3.05;2.20;;;;;;;14.12;62.66;96291.66;4839052;29;20058;-86
2023/10/23 11:17:48;;;;;;;4.90;2.00;;;;;;;14.14;62.56;96285.19;4837705;29;20046;-84
2023/10/23 11:20:16;;;;;;;1.90;1.80;;;;;;;14.17;61.99;96266.41;4852699;29;20178;-85
2023/10/23 11:22:47;;;;;;;4.35;1.60;;;;;;;14.21;61.73;96272.03;4855558;29;20087;-83
2023/10/23 11:25:17;;;;;;;3.53;1.65;;;;;;;14.21;61.50;96264.16;4856017;29;20557;-85
2023/10/23 11:27:50;;;;;;;3.15;1.77;;;;;;;14.22;60.97;96261.34;4840212;29;20059;-83
2023/10/23 11:30:18;;;;;;;2.92;1.38;;;;;;;14.22;60.73;96252.66;4852705;29;20070;-85
2023/10/23 11:32:46;;;;;;;3.80;1.70;;;;;;;14.25;60.93;96254.84;4835434;29;20085;-85
2023/10/23 11:35:13;;;;;;;3.33;1.33;;;;;;;14.27;60.43;96249.41;4835942;29;20054;-83
2023/10/23 11:37:43;;;;;;;4.55;1.45;;;;;;;14.29;60.07;96242.91;4847570;29;20070;-87
2023/10/23 11:40:12;;;;;;;1.60;1.15;;;;;;;14.32;59.95;96250.38;4844400;29;20252;-87
2023/10/23 11:42:47;;;;;;;2.50;1.05;;;;;;;14.34;59.70;96235.22;4838965;29;20066;-85
2023/10/23 11:45:17;;;;;;;2.28;1.40;;;;;;;14.38;59.90;96238.22;4834466;29;20065;-82
2023/10/23 11:47:45;;;;;;;2.13;1.25;;;;;;;14.42;60.26;96234.94;4850525;29;20057;-82
2023/10/23 11:50:14;;;;;;;3.30;1.40;;;;;;;14.49;60.52;96236.72;4850766;29;20591;-85
2023/10/23 11:52:44;;;;;;;2.17;1.63;;;;;;;14.55;59.66;96241.94;4840068;29;20065;-88
2023/10/23 11:55:15;;;;;;;3.58;1.02;;;;;;;14.60;60.22;96243.91;4840333;29;20076;-81
2023/10/23 11:57:46;;;;;;;1.17;0.65;;;;;;;14.63;60.53;96231.16;4853631;29;20058;-87
2023/10/23 12:00:15;;;;;;;1.45;0.63;;;;;;;14.66;59.76;96229.13;4852754;29;20053;-83
2023/10/23 12:02:45;;;;;;;3.08;0.90;;;;;;;14.68;60.43;96230.50;4850975;29;20054;-84
2023/10/23 12:05:15;;;;;;;3.65;1.20;;;;;;;14.70;59.55;96222.44;4846368;29;20046;-86
2023/10/23 12:07:45;;;;;;;0.70;0.70;;;;;;;14.74;62.30;96221.78;4847293;29;20058;-85
2023/10/23 12:10:16;;;;;;;3.80;0.70;;;;;;;14.79;60.13;96219.28;4834872;29;20085;-85
2023/10/23 12:12:45;;;;;;;0.80;0.63;;;;;;;14.86;59.95;96207.91;4833676;29;20110;-85
2023/10/23 12:15:15;;;;;;;1.15;0.88;;;;;;;14.90;58.74;96206.47;4841530;29;20307;-81
2023/10/23 12:17:43;;;;;;;1.95;0.80;;;;;;;14.95;58.33;96198.72;4832701;29;20111;-84
2023/10/23 12:20:14;;;;;;;1.35;0.82;;;;;;;14.98;57.85;96190.44;4833610;29;20054;-88
2023/10/23 12:22:43;;;;;;;1.20;1.08;;;;;;;14.99;57.58;96178.88;4850879;29;20050;-82
2023/10/23 12:25:11;;;;;;;3.22;1.10;;;;;;;15.01;57.99;96169.75;4847163;29;20050;-86
2023/10/23 12:27:41;;;;;;;2.20;1.00;;;;;;;15.02;57.43;96170.56;4835294;29;20069;-84
2023/10/23 12:30:11;;;;;;;1.77;0.98;;;;;;;15.03;57.05;96172.19;4849776;29;20054;-83
2023/10/23 12:32:46;;;;;;;3.78;1.13;;;;;;;15.04;57.54;96155.38;4834326;29;20075;-88
2023/10/23 12:35:33;;;;;;;2.15;0.70;;;;;;;15.07;57.21;96154.16;4843309;29;20046;-86
2023/10/23 12:38:02;;;;;;;1.63;0.93;;;;;;;15.10;60.18;96151.88;4835629;29;20046;-89
2023/10/23 12:40:30;;;;;;;2.35;0.70;;;;;;;15.13;59.24;96156.69;4834847;29;20543;-87
2023/10/23 12:43:06;;;;;;;;;;;;;;;15.15;60.44;96159.91;4822161;29;20050;-88
2023/10/23 12:45:36;;;;;;;2.88;1.13;;;;;;;15.15;59.43;96144.16;4849842;29;19924;-86
2023/10/23 12:48:04;;;;;;;1.98;1.20;;;;;;;15.14;58.67;96149.63;4840338;29;20766;-88
2023/10/23 12:50:32;;;;;;;2.17;1.40;;;;;;;15.10;58.35;96141.38;4849553;29;20430;-87
2023/10/23 12:53:00;;;;;;;2.53;1.00;;;;;;;15.09;58.05;96142.41;4849807;29;20057;-83
2023/10/23 12:55:28;;;;;;;3.45;1.63;;;;;;;15.07;57.89;96139.19;4850921;29;20392;-83
2023/10/23 12:57:56;;;;;;;1.10;1.00;;;;;;;15.08;58.58;96150.50;4849614;29;20050;-85
2023/10/23 13:00:25;;;;;;;1.67;1.10;;;;;;;15.07;58.21;96154.97;4848797;29;20489;-84
2023/10/23 13:02:53;;;;;;;2.42;1.15;;;;;;;15.06;58.11;96166.47;4849802;29;20106;-90
2023/10/23 13:05:21;;;;;;;3.38;1.65;;;;;;;15.04;58.74;96181.66;4840522;29;20054;-84
2023/10/23 13:07:49;;;;;;;2.00;1.35;;;;;;;15.03;60.73;96190.56;4853702;29;20071;-89
2023/10/23 13:10:17;;;;;;;3.03;2.08;;;;;;;15.01;59.90;96187.34;4852429;29;20053;-87
2023/10/23 13:12:45;;;;;;;1.70;1.60;;;;;;;14.98;58.96;96187.78;4835625;29;20057;-86
2023/10/23 13:15:13;;;;;;;3.55;1.83;;;;;;;14.95;59.03;96188.22;4820761;29;20439;-88
2023/10/23 13:17:42;;;;;;;3.45;2.10;;;;;;;14.91;58.83;96181.78;4837194;29;20523;-82
2023/10/23 13:20:11;;;;;;;2.80;1.67;;;;;;;14.89;59.77;96191.72;4834142;29;20055;-85
2023/10/23 13:22:58;;;;;;;2.92;2.17;;;;;;;14.89;60.22;96170.72;4836004;29;20061;-83
2023/10/23 13:25:26;;;;;;;2.92;2.10;;;;;;;14.86;59.33;96164.06;4845771;29;20095;-81
2023/10/23 13:27:55;;;;;;;2.70;1.90;;;;;;;14.86;59.19;96150.16;4835379;29;20058;-88
2023/10/23 13:30:23;;;;;;;2.97;1.80;;;;;;;14.80;59.13;96144.75;4837316;29;20054;-85
2023/10/23 13:32:52;;;;;;;2.33;1.65;;;;;;;14.81;59.38;96141.09;4847100;29;20046;-85
2023/10/23 13:35:20;;;;;;;2.85;1.77;;;;;;;14.81;60.92;96145.56;4843428;29;20050;-82
2023/10/23 13:37:48;;;;;;;4.32;2.10;;;;;;;14.79;60.62;96140.53;4846660;29;20057;-87
2023/10/23 13:40:15;;;;;;;4.80;1.77;;;;;;;14.79;59.87;96135.28;4833753;29;20051;-84
2023/10/23 13:42:43;;;;;;;3.10;2.00;;;;;;;14.79;59.90;96132.63;4838717;29;20055;-83
2023/10/23 13:45:11;;;;;;;5.18;2.45;;;;;;;14.78;59.64;96120.56;4832971;29;20563;-84
2023/10/23 13:47:42;;;;;;;4.10;1.90;;;;;;;14.74;59.63;96094.97;4838125;29;20050;-87
2023/10/23 13:50:11;;;;;;;2.33;1.95;;;;;;;14.69;60.02;96086.91;4837775;29;20423;-85
2023/10/23 13:52:40;;;;;;;9.52;2.28;;;;;;;14.65;60.88;96078.69;4816535;29;20082;-85
2023/10/23 13:55:10;;;;;;;3.05;1.85;;;;;;;14.62;61.04;96073.88;4816174;29;20511;-87
2023/10/23 13:57:38;;;;;;;2.50;1.90;;;;;;;14.59;61.50;96069.88;4830332;29;20070;-85
2023/10/23 14:00:09;;;;;;;2.45;1.88;;;;;;;14.59;62.21;96074.31;4836164;29;20065;-84
2023/10/23 14:02:40;;;;;;;1.98;1.73;;;;;;;14.61;64.23;96082.78;4848497;29;20053;-83
2023/10/23 14:05:12;;;;;;;2.80;1.70;;;;;;;14.61;62.38;96093.28;4851836;29;20057;-84
2023/10/23 14:07:40;;;;;;;3.92;2.30;;;;;;;14.61;63.73;96095.91;4848069;29;20057;-84
2023/10/23 14:10:08;;;;;;;2.88;2.03;;;;;;;14.61;62.87;96098.53;4838920;29;20137;-83
2023/10/23 14:12:35;;;;;;;4.18;2.72;;;;;;;14.61;63.37;96094.06;4846918;29;20050;-84
2023/10/23 14:15:03;;;;;;;4.20;3.08;;;;;;;14.62;62.83;96084.38;4814643;29;20074;-81
2023/10/23 14:17:35;;;;;;;4.55;2.47;;;;;;;14.61;62.93;96077.53;4843676;29;20053;-81